createdAt,value
2024-05-09T00:00:35.932Z,102555.66
2024-05-09T00:03:10.613Z,102562.00
2024-05-09T00:05:42.434Z,102557.41
2024-05-09T00:08:10.620Z,102566.19
2024-05-09T00:10:39.341Z,102565.94
2024-05-09T00:13:07.607Z,102558.69
2024-05-09T00:15:35.193Z,102563.94
2024-05-09T00:18:03.131Z,102556.41
2024-05-09T00:20:37.530Z,102558.69
2024-05-09T00:23:07.843Z,102556.59
2024-05-09T00:25:35.482Z,102555.13
2024-05-09T00:28:02.546Z,102561.41
2024-05-09T00:30:34.393Z,102551.34
2024-05-09T00:33:07.109Z,102553.84
2024-05-09T00:35:35.321Z,102555.50
2024-05-09T00:38:02.275Z,102553.41
2024-05-09T00:40:39.159Z,102547.25
2024-05-09T00:43:08.405Z,102552.13
2024-05-09T00:45:35.651Z,102558.31
2024-05-09T00:48:05.122Z,102550.63
2024-05-09T00:50:36.783Z,102549.56
2024-05-09T00:53:08.749Z,102545.63
2024-05-09T00:55:37.632Z,102549.97
2024-05-09T00:58:05.328Z,102559.53
2024-05-09T01:00:38.422Z,102553.72
2024-05-09T01:03:07.969Z,102557.69
2024-05-09T01:05:35.695Z,102558.72
2024-05-09T01:08:03.282Z,102553.31
2024-05-09T01:10:34.630Z,102552.09
2024-05-09T01:13:06.564Z,102547.66
2024-05-09T01:15:34.729Z,102541.66
2024-05-09T01:18:06.901Z,102541.19
2024-05-09T01:20:41.077Z,102543.00
2024-05-09T01:23:11.209Z,102546.47
2024-05-09T01:25:38.220Z,102539.56
2024-05-09T01:28:05.640Z,102539.31
2024-05-09T01:30:35.554Z,102532.06
2024-05-09T01:33:05.672Z,102529.78
2024-05-09T01:35:33.685Z,102535.53
2024-05-09T01:38:00.409Z,102523.47
2024-05-09T01:40:36.329Z,102535.28
2024-05-09T01:43:06.123Z,102529.28
2024-05-09T01:45:32.875Z,102524.75
2024-05-09T01:47:59.877Z,102527.03
2024-05-09T01:50:37.363Z,102534.88
2024-05-09T01:53:08.279Z,102541.75
2024-05-09T01:55:35.053Z,102526.81
2024-05-09T01:58:01.652Z,102525.94
2024-05-09T02:00:38.064Z,102525.06
2024-05-09T02:03:15.000Z,102529.56
2024-05-09T02:05:45.095Z,102522.75
2024-05-09T02:08:17.481Z,102530.41
2024-05-09T02:10:45.277Z,102528.34
2024-05-09T02:13:13.065Z,102533.31
2024-05-09T02:15:39.745Z,102538.19
2024-05-09T02:18:07.987Z,102530.78
2024-05-09T02:20:36.880Z,102538.91
2024-05-09T02:23:05.993Z,102526.44
2024-05-09T02:25:33.207Z,102532.66
2024-05-09T02:28:00.032Z,102527.47
2024-05-09T02:30:37.687Z,102531.97
2024-05-09T02:33:08.248Z,102524.47
2024-05-09T02:35:35.920Z,102525.47
2024-05-09T02:38:02.788Z,102518.81
2024-05-09T02:40:36.408Z,102520.63
2024-05-09T02:43:06.341Z,102521.84
2024-05-09T02:45:33.409Z,102529.16
2024-05-09T02:48:00.799Z,102523.94
2024-05-09T02:50:34.567Z,102527.03
2024-05-09T02:53:06.055Z,102521.63
2024-05-09T02:55:32.994Z,102529.34
2024-05-09T02:57:59.804Z,102524.59
2024-05-09T03:00:34.734Z,102517.59
2024-05-09T03:03:08.344Z,102512.38
2024-05-09T03:05:36.303Z,102524.00
2024-05-09T03:08:03.371Z,102521.63
2024-05-09T03:10:35.586Z,102520.97
2024-05-09T03:13:08.041Z,102520.38
2024-05-09T03:15:34.765Z,102535.13
2024-05-09T03:18:01.813Z,102527.41
2024-05-09T03:20:34.002Z,102526.97
2024-05-09T03:23:02.637Z,102531.16
2024-05-09T03:25:29.382Z,102523.69
2024-05-09T03:27:55.971Z,102518.16
2024-05-09T03:30:35.800Z,102521.47
2024-05-09T03:33:10.768Z,102526.00
2024-05-09T03:35:37.916Z,102523.13
2024-05-09T03:38:04.897Z,102518.16
2024-05-09T03:40:31.576Z,102515.78
2024-05-09T03:42:58.812Z,102519.06
2024-05-09T03:45:25.532Z,102516.81
2024-05-09T03:47:52.660Z,102503.13
2024-05-09T03:50:29.525Z,102517.66
2024-05-09T03:53:00.429Z,102504.78
2024-05-09T03:55:27.176Z,102507.50
2024-05-09T03:57:53.789Z,102514.38
2024-05-09T04:00:30.420Z,102508.53
2024-05-09T04:03:02.578Z,102515.56
2024-05-09T04:05:30.931Z,102516.34
2024-05-09T04:07:57.878Z,102513.97
2024-05-09T04:10:31.338Z,102518.41
2024-05-09T04:13:00.696Z,102519.84
2024-05-09T04:15:27.407Z,102525.75
2024-05-09T04:17:54.237Z,102510.31
2024-05-09T04:20:29.571Z,102518.97
2024-05-09T04:23:04.394Z,102515.75
2024-05-09T04:25:31.981Z,102521.56
2024-05-09T04:27:58.622Z,102509.66
2024-05-09T04:30:34.580Z,102519.66
2024-05-09T04:33:06.734Z,102515.28
2024-05-09T04:35:34.557Z,102520.09
2024-05-09T04:38:01.400Z,102519.00
2024-05-09T04:40:33.526Z,102520.47
2024-05-09T04:43:03.697Z,102529.13
2024-05-09T04:45:30.584Z,102529.44
2024-05-09T04:47:57.712Z,102538.06
2024-05-09T04:50:33.869Z,102525.41
2024-05-09T04:53:05.112Z,102522.09
2024-05-09T04:55:32.604Z,102517.94
2024-05-09T04:57:59.230Z,102513.22
2024-05-09T05:00:32.607Z,102516.78
2024-05-09T05:03:09.220Z,102524.94
2024-05-09T05:05:41.741Z,102517.66
2024-05-09T05:08:12.365Z,102523.31
2024-05-09T05:10:39.258Z,102519.53
2024-05-09T05:13:23.706Z,102515.78
2024-05-09T05:15:57.489Z,102520.81
2024-05-09T05:18:25.967Z,102524.31
2024-05-09T05:20:53.032Z,102518.72
2024-05-09T05:23:20.757Z,102512.38
2024-05-09T05:25:49.455Z,102520.13
2024-05-09T05:28:17.180Z,102520.16
2024-05-09T05:30:44.554Z,102517.69
2024-05-09T05:33:15.593Z,102522.28
2024-05-09T05:35:42.473Z,102519.34
2024-05-09T05:38:10.695Z,102521.44
2024-05-09T05:40:38.892Z,102524.19
2024-05-09T05:43:11.032Z,102524.22
2024-05-09T05:45:38.780Z,102517.50
2024-05-09T05:48:07.927Z,102527.47
2024-05-09T05:50:37.430Z,102524.97
2024-05-09T05:53:06.492Z,102517.84
2024-05-09T05:55:33.293Z,102512.75
2024-05-09T05:58:00.927Z,102514.97
2024-05-09T06:00:34.464Z,102517.94
2024-05-09T06:03:05.534Z,102522.13
2024-05-09T06:05:32.734Z,102521.69
2024-05-09T06:07:59.612Z,102517.38
2024-05-09T06:10:34.758Z,102518.81
2024-05-09T06:13:05.483Z,102517.50
2024-05-09T06:15:32.117Z,102510.69
2024-05-09T06:17:59.248Z,102518.41
2024-05-09T06:20:34.643Z,102514.94
2024-05-09T06:23:04.797Z,102523.88
2024-05-09T06:25:31.754Z,102525.44
2024-05-09T06:28:00.027Z,102526.50
2024-05-09T06:30:35.301Z,102522.00
2024-05-09T06:33:07.217Z,102515.56
2024-05-09T06:35:34.370Z,102522.84
2024-05-09T06:38:01.640Z,102523.88
2024-05-09T06:40:36.395Z,102521.59
2024-05-09T06:43:10.576Z,102528.41
2024-05-09T06:45:37.307Z,102530.78
2024-05-09T06:48:04.471Z,102525.00
2024-05-09T06:50:37.016Z,102528.56
2024-05-09T06:53:05.169Z,102520.41
2024-05-09T06:55:31.873Z,102521.47
2024-05-09T06:57:58.507Z,102520.34
2024-05-09T07:00:30.941Z,102515.28
2024-05-09T07:03:14.365Z,102511.00
2024-05-09T07:05:43.553Z,102520.13
2024-05-09T07:08:10.502Z,102518.31
2024-05-09T07:10:37.672Z,102522.06
2024-05-09T07:13:11.585Z,102524.75
2024-05-09T07:15:38.863Z,102515.59
2024-05-09T07:18:13.703Z,102520.84
2024-05-09T07:20:41.340Z,102510.13
2024-05-09T07:23:12.084Z,102520.94
2024-05-09T07:25:40.284Z,102514.22
2024-05-09T07:28:17.672Z,102520.69
2024-05-09T07:30:45.061Z,102535.09
2024-05-09T07:33:20.890Z,102523.00
2024-05-09T07:35:49.163Z,102525.38
2024-05-09T07:38:15.932Z,102528.75
2024-05-09T07:40:43.052Z,102522.50
2024-05-09T07:43:13.138Z,102529.91
2024-05-09T07:45:49.596Z,102531.50
2024-05-09T07:52:24.305Z,102533.44
2024-05-09T07:53:44.839Z,102532.84
2024-05-09T07:56:15.540Z,102522.63
2024-05-09T07:58:45.837Z,102533.13
2024-05-09T08:01:12.459Z,102531.56
2024-05-09T08:03:39.366Z,102525.09
2024-05-09T08:06:06.124Z,102528.19
2024-05-09T08:08:32.681Z,102522.69
2024-05-09T08:10:59.262Z,102528.78
2024-05-09T08:13:25.835Z,102522.13
2024-05-09T08:15:52.717Z,102518.03
2024-05-09T08:18:19.823Z,102519.97
2024-05-09T08:20:48.810Z,102516.94
2024-05-09T08:23:15.672Z,102512.19
2024-05-09T08:25:42.276Z,102524.13
2024-05-09T08:28:09.333Z,102518.13
2024-05-09T08:30:37.712Z,102513.41
2024-05-09T08:33:06.607Z,102514.69
2024-05-09T08:35:34.574Z,102518.69
2024-05-09T08:38:06.177Z,102511.31
2024-05-09T08:40:36.237Z,102505.41
2024-05-09T08:43:10.481Z,102507.13
2024-05-09T08:45:43.156Z,102519.28
2024-05-09T08:48:14.718Z,102504.69
2024-05-09T08:50:43.144Z,102501.47
2024-05-09T08:53:10.159Z,102505.59
2024-05-09T08:55:40.682Z,102506.31
2024-05-09T08:58:15.923Z,102505.31
2024-05-09T09:00:44.186Z,102494.06
2024-05-09T09:03:15.576Z,102496.19
2024-05-09T09:05:52.099Z,102490.66
2024-05-09T09:08:18.763Z,102491.97
2024-05-09T09:10:47.771Z,102479.66
2024-05-09T09:13:14.675Z,102481.50
2024-05-09T09:15:49.173Z,102488.34
2024-05-09T09:18:16.896Z,102487.56
2024-05-09T09:20:44.437Z,102485.00
2024-05-09T09:23:11.578Z,102479.88
2024-05-09T09:25:41.463Z,102481.16
2024-05-09T09:28:08.480Z,102482.50
2024-05-09T09:30:39.439Z,102484.34
2024-05-09T09:33:06.865Z,102487.66
2024-05-09T09:35:34.439Z,102476.59
2024-05-09T09:38:02.909Z,102477.19
2024-05-09T09:40:36.140Z,102478.47
2024-05-09T09:43:13.883Z,102473.63
2024-05-09T09:45:43.670Z,102472.28
2024-05-09T09:48:11.939Z,102479.16
2024-05-09T09:50:40.136Z,102465.53
2024-05-09T09:53:07.880Z,102473.22
2024-05-09T09:55:35.630Z,102473.19
2024-05-09T09:58:04.331Z,102471.31
2024-05-09T10:00:34.293Z,102463.34
2024-05-09T10:03:01.703Z,102459.59
2024-05-09T10:05:33.336Z,102470.19
2024-05-09T10:08:10.572Z,102460.69
2024-05-09T10:10:37.448Z,102457.41
2024-05-09T10:13:08.125Z,102456.41
2024-05-09T10:15:46.187Z,102462.25
2024-05-09T10:18:13.452Z,102460.84
2024-05-09T10:20:41.984Z,102456.50
2024-05-09T10:23:27.920Z,102455.97
2024-05-09T10:26:01.992Z,102448.72
2024-05-09T10:28:30.715Z,102450.25
2024-05-09T10:31:12.819Z,102435.16
2024-05-09T10:33:49.187Z,102441.25
2024-05-09T10:36:21.600Z,102448.28
2024-05-09T10:38:49.861Z,102441.59
2024-05-09T10:41:17.406Z,102436.81
2024-05-09T10:43:44.455Z,102448.06
2024-05-09T10:46:12.154Z,102430.91
2024-05-09T10:48:41.601Z,102435.72
2024-05-09T10:51:08.899Z,102438.53
2024-05-09T10:53:46.106Z,102433.41
2024-05-09T10:56:16.386Z,102435.56
2024-05-09T10:58:43.160Z,102430.84
2024-05-09T11:01:13.393Z,102436.34
2024-05-09T11:03:40.571Z,102437.56
2024-05-09T11:06:08.163Z,102425.69
2024-05-09T11:08:36.577Z,102428.41
2024-05-09T11:11:07.602Z,102428.06
2024-05-09T11:13:36.729Z,102420.66
2024-05-09T11:16:04.590Z,102423.53
2024-05-09T11:18:35.569Z,102418.91
2024-05-09T11:21:12.996Z,102418.59
2024-05-09T11:23:40.527Z,102418.97
2024-05-09T11:26:07.450Z,102420.16
2024-05-09T11:28:34.220Z,102424.59
2024-05-09T11:31:09.096Z,102422.13
2024-05-09T11:33:43.058Z,102412.22
2024-05-09T11:36:10.277Z,102411.00
2024-05-09T11:38:37.108Z,102415.06
2024-05-09T11:41:05.740Z,102413.97
2024-05-09T11:43:33.255Z,102403.81
2024-05-09T11:46:00.576Z,102398.66
2024-05-09T11:48:27.894Z,102401.84
2024-05-09T11:50:55.764Z,102391.69
2024-05-09T11:53:22.668Z,102386.69
2024-05-09T11:55:49.324Z,102388.09
2024-05-09T11:58:17.899Z,102391.19
2024-05-09T12:00:45.581Z,102384.19
2024-05-09T12:03:12.619Z,102387.75
2024-05-09T12:05:39.599Z,102389.81
2024-05-09T12:08:07.166Z,102389.56
2024-05-09T12:10:35.971Z,102385.31
2024-05-09T12:13:05.398Z,102389.13
2024-05-09T12:15:33.970Z,102395.19
2024-05-09T12:18:03.633Z,102390.81
2024-05-09T12:20:36.753Z,102380.34
2024-05-09T12:23:06.424Z,102385.75
2024-05-09T12:25:33.168Z,102386.41
2024-05-09T12:28:00.722Z,102381.03
2024-05-09T12:30:35.798Z,102386.00
2024-05-09T12:33:07.689Z,102365.88
2024-05-09T12:35:34.650Z,102376.75
2024-05-09T12:38:01.522Z,102381.38
2024-05-09T12:40:35.576Z,102376.25
2024-05-09T12:43:06.582Z,102371.00
2024-05-09T12:45:33.690Z,102368.84
2024-05-09T12:48:01.031Z,102360.44
2024-05-09T12:50:32.606Z,102364.41
2024-05-09T12:53:01.603Z,102366.28
2024-05-09T12:55:31.814Z,102366.81
2024-05-09T12:58:04.431Z,102372.50
2024-05-09T13:00:33.964Z,102364.91
2024-05-09T13:03:01.547Z,102362.16
2024-05-09T13:05:28.843Z,102358.91
2024-05-09T13:07:57.077Z,102357.47
2024-05-09T13:10:31.708Z,102354.59
2024-05-09T13:13:00.913Z,102348.84
2024-05-09T13:15:28.374Z,102352.38
2024-05-09T13:17:58.116Z,102357.22
2024-05-09T13:20:32.681Z,102355.91
2024-05-09T13:23:03.228Z,102346.88
2024-05-09T13:25:30.039Z,102353.97
2024-05-09T13:27:57.590Z,102347.13
2024-05-09T13:32:55.024Z,102347.19
2024-05-09T13:35:21.802Z,102355.25
2024-05-09T13:37:48.836Z,102342.81
2024-05-09T13:40:23.228Z,102352.84
2024-05-09T13:42:53.896Z,102343.56
2024-05-09T13:45:20.646Z,102338.03
2024-05-09T13:47:47.714Z,102339.09
2024-05-09T13:50:23.644Z,102339.59
2024-05-09T13:52:58.124Z,102339.22
2024-05-09T13:55:25.056Z,102330.94
2024-05-09T13:57:52.089Z,102339.16
2024-05-09T14:00:31.702Z,102335.84
2024-05-09T14:03:05.663Z,102332.25
2024-05-09T14:05:32.619Z,102325.53
2024-05-09T14:07:59.580Z,102330.97
2024-05-09T14:10:30.985Z,102325.56
2024-05-09T14:12:58.812Z,102323.84
2024-05-09T14:15:25.469Z,102327.19
2024-05-09T14:17:52.192Z,102322.75
2024-05-09T14:20:28.475Z,102333.09
2024-05-09T14:22:58.413Z,102318.69
2024-05-09T14:25:26.638Z,102312.66
2024-05-09T14:27:54.090Z,102321.09
2024-05-09T14:30:30.151Z,102311.25
2024-05-09T14:33:02.552Z,102311.63
2024-05-09T14:35:29.298Z,102313.69
2024-05-09T14:37:55.928Z,102307.06
2024-05-09T14:40:35.743Z,102307.66
2024-05-09T14:43:07.855Z,102297.56
2024-05-09T14:45:34.772Z,102306.66
2024-05-09T14:48:02.285Z,102292.41
2024-05-09T14:50:35.566Z,102292.78
2024-05-09T14:53:06.403Z,102292.03
2024-05-09T14:55:35.903Z,102308.38
2024-05-09T14:58:03.632Z,102289.09
2024-05-09T15:00:35.805Z,102299.28
2024-05-09T15:03:04.728Z,102294.53
2024-05-09T15:05:31.453Z,102289.31
2024-05-09T15:07:58.751Z,102290.03
2024-05-09T15:10:33.803Z,102284.66
2024-05-09T15:13:03.005Z,102282.09
2024-05-09T15:15:30.214Z,102279.72
2024-05-09T15:17:57.155Z,102274.47
2024-05-09T15:20:31.517Z,102274.47
2024-05-09T15:23:02.647Z,102274.16
2024-05-09T15:25:29.555Z,102275.19
2024-05-09T15:27:56.467Z,102279.56
2024-05-09T15:30:30.340Z,102275.19
2024-05-09T15:32:59.975Z,102271.28
2024-05-09T15:35:26.829Z,102268.31
2024-05-09T15:37:53.495Z,102265.56
2024-05-09T15:40:30.449Z,102272.03
2024-05-09T15:43:04.642Z,102268.00
2024-05-09T15:45:31.479Z,102264.69
2024-05-09T15:47:58.718Z,102266.38
2024-05-09T15:50:35.558Z,102267.94
2024-05-09T15:53:06.696Z,102269.69
2024-05-09T15:55:34.508Z,102270.09
2024-05-09T15:58:02.029Z,102262.53
2024-05-09T16:00:36.761Z,102262.84
2024-05-09T16:03:07.245Z,102256.91
2024-05-09T16:05:34.311Z,102248.38
2024-05-09T16:08:01.095Z,102247.81
2024-05-09T16:10:32.572Z,102251.72
2024-05-09T16:13:01.050Z,102252.44
2024-05-09T16:15:27.870Z,102257.59
2024-05-09T16:17:55.184Z,102250.25
2024-05-09T16:20:33.772Z,102258.13
2024-05-09T16:23:06.380Z,102251.25
2024-05-09T16:25:33.117Z,102251.19
2024-05-09T16:28:00.222Z,102247.69
2024-05-09T16:30:31.906Z,102243.88
2024-05-09T16:33:02.431Z,102245.75
2024-05-09T16:35:29.334Z,102246.28
2024-05-09T16:37:56.004Z,102248.81
2024-05-09T16:40:30.246Z,102246.41
2024-05-09T16:43:04.723Z,102240.41
2024-05-09T16:45:31.996Z,102248.16
2024-05-09T16:47:59.650Z,102241.59
2024-05-09T16:50:32.020Z,102238.28
2024-05-09T16:53:00.669Z,102242.00
2024-05-09T16:55:27.414Z,102236.09
2024-05-09T16:57:55.243Z,102238.91
2024-05-09T17:00:31.771Z,102230.13
2024-05-09T17:03:07.442Z,102239.84
2024-05-09T17:05:35.280Z,102234.19
2024-05-09T17:08:02.486Z,102237.47
2024-05-09T17:10:33.110Z,102238.88
2024-05-09T17:13:02.446Z,102234.72
2024-05-09T17:15:29.968Z,102236.13
2024-05-09T17:17:56.868Z,102232.81
2024-05-09T17:20:31.341Z,102229.88
2024-05-09T17:23:02.046Z,102232.88
2024-05-09T17:25:29.075Z,102234.28
2024-05-09T17:27:56.087Z,102239.75
2024-05-09T17:30:29.150Z,102234.00
2024-05-09T17:33:02.263Z,102228.50
2024-05-09T17:35:29.130Z,102234.53
2024-05-09T17:37:56.469Z,102224.88
2024-05-09T17:40:30.992Z,102220.81
2024-05-09T17:43:01.611Z,102239.16
2024-05-09T17:45:28.511Z,102233.94
2024-05-09T17:47:55.561Z,102227.97
2024-05-09T17:50:30.236Z,102232.88
2024-05-09T17:53:01.337Z,102229.81
2024-05-09T17:55:28.550Z,102230.72
2024-05-09T17:57:55.490Z,102233.47
2024-05-09T18:00:32.841Z,102239.47
2024-05-09T18:03:05.701Z,102239.66
2024-05-09T18:05:32.808Z,102237.97
2024-05-09T18:07:59.973Z,102241.53
2024-05-09T18:10:33.701Z,102231.44
2024-05-09T18:13:05.642Z,102234.78
2024-05-09T18:15:33.016Z,102244.72
2024-05-09T18:18:00.116Z,102239.88
2024-05-09T18:22:56.429Z,102235.66
2024-05-09T18:25:23.172Z,102227.38
2024-05-09T18:27:50.104Z,102227.94
2024-05-09T18:30:24.148Z,102228.69
2024-05-09T18:32:58.249Z,102228.50
2024-05-09T18:35:24.891Z,102226.88
2024-05-09T18:37:53.051Z,102227.69
2024-05-09T18:40:27.335Z,102227.41
2024-05-09T18:42:58.012Z,102222.66
2024-05-09T18:45:24.716Z,102229.22
2024-05-09T18:47:51.788Z,102226.88
2024-05-09T18:50:28.438Z,102230.38
2024-05-09T18:53:01.374Z,102229.84
2024-05-09T18:55:27.998Z,102231.69
2024-05-09T18:57:54.629Z,102235.16
2024-05-09T19:00:31.338Z,102236.88
2024-05-09T19:03:05.148Z,102229.66
2024-05-09T19:05:32.715Z,102228.75
2024-05-09T19:07:59.659Z,102232.53
2024-05-09T19:10:32.192Z,102244.56
2024-05-09T19:13:02.835Z,102245.75
2024-05-09T19:15:30.779Z,102237.97
2024-05-09T19:17:57.684Z,102233.25
2024-05-09T19:20:28.727Z,102244.28
2024-05-09T19:23:00.418Z,102230.75
2024-05-09T19:25:27.018Z,102245.47
2024-05-09T19:27:53.646Z,102237.91
2024-05-09T19:30:29.383Z,102237.38
2024-05-09T19:33:04.052Z,102241.16
2024-05-09T19:35:30.735Z,102244.19
2024-05-09T19:37:57.550Z,102245.03
2024-05-09T19:40:30.721Z,102240.81
2024-05-09T19:42:59.984Z,102243.38
2024-05-09T19:45:26.689Z,102240.78
2024-05-09T19:47:53.531Z,102244.94
2024-05-09T19:50:27.040Z,102246.81
2024-05-09T19:53:02.847Z,102240.81
2024-05-09T19:55:29.619Z,102238.16
2024-05-09T19:57:56.316Z,102241.13
2024-05-09T20:00:32.150Z,102242.47
2024-05-09T20:03:02.239Z,102245.16
2024-05-09T20:05:31.084Z,102243.41
2024-05-09T20:07:58.152Z,102234.38
2024-05-09T20:10:31.070Z,102240.94
2024-05-09T20:12:59.949Z,102239.94
2024-05-09T20:15:26.837Z,102239.94
2024-05-09T20:17:53.835Z,102245.72
2024-05-09T20:20:31.902Z,102243.09
2024-05-09T20:23:03.427Z,102238.94
2024-05-09T20:25:30.152Z,102241.84
2024-05-09T20:27:56.851Z,102234.38
2024-05-09T20:30:30.657Z,102245.47
2024-05-09T20:32:59.964Z,102228.53
2024-05-09T20:35:26.923Z,102235.69
2024-05-09T20:37:53.777Z,102237.63
2024-05-09T20:40:28.381Z,102230.28
2024-05-09T20:42:59.176Z,102237.91
2024-05-09T20:45:26.339Z,102246.22
2024-05-09T20:47:53.160Z,102239.16
2024-05-09T20:50:28.508Z,102233.38
2024-05-09T20:53:03.063Z,102231.31
2024-05-09T20:55:30.110Z,102233.09
2024-05-09T20:57:57.412Z,102238.09
2024-05-09T21:00:33.854Z,102225.97
2024-05-09T21:03:06.622Z,102232.25
2024-05-09T21:05:34.259Z,102233.25
2024-05-09T21:08:01.481Z,102229.06
2024-05-09T21:10:32.655Z,102225.25
2024-05-09T21:13:01.176Z,102219.19
2024-05-09T21:15:28.116Z,102222.63
2024-05-09T21:17:55.027Z,102215.25
2024-05-09T21:20:28.695Z,102216.22
2024-05-09T21:22:58.350Z,102212.22
2024-05-09T21:25:25.110Z,102212.69
2024-05-09T21:27:51.922Z,102213.81
2024-05-09T21:30:27.885Z,102214.94
2024-05-09T21:33:04.738Z,102206.44
2024-05-09T21:35:31.659Z,102214.63
2024-05-09T21:37:58.266Z,102209.88
2024-05-09T21:40:31.611Z,102211.47
2024-05-09T21:43:01.580Z,102202.28
2024-05-09T21:45:28.352Z,102204.47
2024-05-09T21:47:55.224Z,102194.91
2024-05-09T21:50:27.338Z,102187.88
2024-05-09T21:52:58.282Z,102186.06
2024-05-09T21:55:24.869Z,102183.72
2024-05-09T21:57:51.515Z,102184.72
2024-05-09T22:00:28.523Z,102177.72
2024-05-09T22:03:02.173Z,102168.88
2024-05-09T22:05:29.123Z,102175.00
2024-05-09T22:07:56.460Z,102171.94
2024-05-09T22:10:27.141Z,102163.66
2024-05-09T22:13:00.013Z,102169.69
2024-05-09T22:15:27.047Z,102171.13
2024-05-09T22:17:53.905Z,102174.00
2024-05-09T22:20:28.798Z,102174.66
2024-05-09T22:23:02.582Z,102177.75
2024-05-09T22:25:30.990Z,102173.22
2024-05-09T22:27:58.623Z,102173.59
2024-05-09T22:30:34.026Z,102175.91
2024-05-09T22:33:05.360Z,102173.50
2024-05-09T22:35:32.244Z,102180.59
2024-05-09T22:37:59.015Z,102178.31
2024-05-09T22:40:37.906Z,102177.13
2024-05-09T22:43:12.588Z,102183.72
2024-05-09T22:45:39.586Z,102178.94
2024-05-09T22:48:07.617Z,102182.19
2024-05-09T22:50:34.442Z,102177.75
2024-05-09T22:53:01.291Z,102181.78
2024-05-09T22:55:27.996Z,102177.84
2024-05-09T22:57:54.686Z,102178.66
2024-05-09T23:00:29.375Z,102173.28
2024-05-09T23:03:02.534Z,102174.47
2024-05-09T23:05:30.279Z,102167.22
2024-05-09T23:07:57.063Z,102173.06
2024-05-09T23:10:31.709Z,102167.84
2024-05-09T23:13:03.013Z,102167.53
2024-05-09T23:15:29.898Z,102173.88
2024-05-09T23:17:57.342Z,102177.63
2024-05-09T23:20:33.001Z,102164.28
2024-05-09T23:23:04.659Z,102176.19
2024-05-09T23:25:31.271Z,102165.41
2024-05-09T23:27:57.963Z,102164.03
2024-05-09T23:30:33.737Z,102170.44
2024-05-09T23:33:05.688Z,102166.06
2024-05-09T23:35:32.483Z,102165.88
2024-05-09T23:37:59.182Z,102161.41
2024-05-09T23:40:36.873Z,102155.38
2024-05-09T23:43:06.838Z,102161.25
2024-05-09T23:45:33.816Z,102159.78
2024-05-09T23:48:01.063Z,102158.25
2024-05-09T23:50:34.423Z,102168.84
2024-05-09T23:53:04.796Z,102154.97
2024-05-09T23:55:32.045Z,102161.41
2024-05-09T23:57:59.184Z,102155.09
